Aviation Digital Data Service (ADDS)

Output produced by TAFs form (1210 UTC 23 August 2017)
found at http://aviationweather.gov/adds/tafs/
 
KELP 231141Z 2312/2412 VRB05KT P6SM FEW070 BKN250 
     FM232100 11007KT P6SM VCTS SCT060CB BKN200 
     FM240000 12007KT P6SM -TSRA SCT025 BKN050CB OVC100